createdAt,value
2019-03-26T09:25:16.390Z,13.30
2019-03-26T09:27:46.977Z,13.00
2019-03-26T09:30:17.991Z,12.60
2019-03-26T09:32:48.459Z,11.70
2019-03-26T09:35:19.580Z,11.60
2019-03-26T09:37:50.095Z,11.30
2019-03-26T09:40:20.584Z,10.90
2019-03-26T09:42:51.085Z,10.30
2019-03-26T09:45:21.776Z,10.20
2019-03-26T09:47:52.481Z,10.10
2019-03-26T09:50:33.325Z,10.00
2019-03-26T09:53:03.727Z,9.80
2019-03-26T09:55:34.042Z,9.60
2019-03-26T09:58:04.752Z,9.60
2019-03-26T10:00:35.151Z,9.40
2019-03-26T10:03:05.521Z,9.50
2019-03-26T10:05:35.879Z,9.80
2019-03-26T10:08:06.383Z,9.70
2019-03-26T10:10:36.806Z,9.60
2019-03-26T10:13:07.312Z,9.70
2019-03-26T10:15:37.825Z,9.60
2019-03-26T10:18:08.668Z,10.00
2019-03-26T10:20:39.571Z,10.40
2019-03-26T10:23:10.730Z,11.20
2019-03-26T10:25:41.231Z,11.20
2019-03-26T10:28:11.764Z,11.70
2019-03-26T10:30:42.651Z,12.40
2019-03-26T10:33:13.070Z,11.70
2019-03-26T10:35:43.980Z,12.10
2019-03-26T10:38:14.960Z,12.00
2019-03-26T10:40:45.576Z,12.20
2019-03-26T10:43:16.857Z,11.90
2019-03-26T10:45:47.690Z,12.00
2019-03-26T10:48:18.153Z,12.20
2019-03-26T10:50:48.598Z,12.20
2019-03-26T10:53:19.396Z,12.70
2019-03-26T10:55:49.905Z,12.60
2019-03-26T10:58:21.076Z,12.30
2019-03-26T11:00:51.975Z,11.60
2019-03-26T11:03:22.491Z,11.40
2019-03-26T11:05:52.841Z,11.40
2019-03-26T11:08:23.457Z,11.10
2019-03-26T11:10:54.308Z,11.50
2019-03-26T11:13:25.077Z,12.00
2019-03-26T11:16:01.588Z,12.30
2019-03-26T11:18:32.049Z,12.50
2019-03-26T11:21:03.286Z,12.50
2019-03-26T11:23:32.053Z,13.60
2019-03-26T11:26:01.084Z,13.60
2019-03-26T11:28:30.087Z,12.70
2019-03-26T11:30:59.570Z,12.70
2019-03-26T11:33:28.632Z,12.70
2019-03-26T11:35:57.623Z,12.50
2019-03-26T11:38:26.822Z,12.50
2019-03-26T11:40:55.927Z,12.90
2019-03-26T11:43:26.637Z,12.60
2019-03-26T11:45:56.152Z,12.90
2019-03-26T11:48:25.589Z,12.50
2019-03-26T11:50:54.599Z,13.30
2019-03-26T11:53:23.745Z,13.50
2019-03-26T11:55:52.942Z,14.00
2019-03-26T11:58:30.598Z,12.90
2019-03-26T12:00:53.025Z,12.50
2019-03-26T12:03:23.209Z,12.20
2019-03-26T12:05:53.772Z,11.60
2019-03-26T12:08:24.577Z,11.30
2019-03-26T12:10:55.100Z,11.00
2019-03-26T12:13:25.784Z,10.80
2019-03-26T12:15:56.444Z,10.60
2019-03-26T12:18:26.839Z,10.50
2019-03-26T12:20:57.102Z,10.50
2019-03-26T12:23:28.067Z,10.60
2019-03-26T12:25:58.535Z,10.30
2019-03-26T12:28:28.958Z,10.60
2019-03-26T12:30:59.305Z,11.10
2019-03-26T12:33:29.730Z,11.20
2019-03-26T12:36:00.555Z,11.50
2019-03-26T12:38:31.246Z,11.30
2019-03-26T12:41:01.749Z,11.30
2019-03-26T12:43:32.246Z,11.40
2019-03-26T12:46:02.769Z,11.40
2019-03-26T12:48:33.340Z,11.60
2019-03-26T12:51:03.937Z,12.10
2019-03-26T12:53:34.344Z,11.90
2019-03-26T12:56:05.064Z,12.00
2019-03-26T12:58:36.625Z,11.70
2019-03-26T13:01:07.764Z,11.90
2019-03-26T13:03:38.323Z,11.60
2019-03-26T13:06:09.056Z,11.70
2019-03-26T13:08:39.433Z,11.60
2019-03-26T13:11:09.897Z,11.50
2019-03-26T13:13:40.358Z,11.50
2019-03-26T13:16:10.994Z,11.80
2019-03-26T13:18:41.499Z,11.70
2019-03-26T13:21:12.165Z,11.80
2019-03-26T13:23:43.424Z,11.50
2019-03-26T13:26:14.115Z,11.50
2019-03-26T13:28:45.023Z,11.50
2019-03-26T13:31:15.508Z,11.30
2019-03-26T13:33:45.876Z,11.30
2019-03-26T13:36:16.614Z,11.20
2019-03-26T13:38:46.822Z,11.30
2019-03-26T13:41:17.236Z,11.30
2019-03-26T13:43:47.860Z,11.00
2019-03-26T13:46:18.213Z,10.50
2019-03-26T13:48:48.699Z,10.00
2019-03-26T13:51:19.464Z,10.10
2019-03-26T13:53:50.279Z,9.70
2019-03-26T13:56:20.755Z,9.70
2019-03-26T13:58:51.566Z,9.60
2019-03-26T14:01:22.104Z,9.80
2019-03-26T14:03:52.883Z,9.70
2019-03-26T14:06:23.148Z,9.80
2019-03-26T14:08:53.670Z,10.00
2019-03-26T14:11:24.104Z,10.20
2019-03-26T14:13:54.502Z,10.30
2019-03-26T14:16:24.700Z,10.40
2019-03-26T14:18:55.257Z,10.40
2019-03-26T14:21:25.515Z,10.50
2019-03-26T14:23:55.906Z,10.80
2019-03-26T14:26:27.761Z,10.70
2019-03-26T14:28:58.888Z,10.50
2019-03-26T14:31:29.668Z,10.90
2019-03-26T14:34:00.368Z,10.90
2019-03-26T14:36:30.975Z,10.70
2019-03-26T14:39:01.180Z,10.60
2019-03-26T14:41:31.622Z,10.80
2019-03-26T14:44:02.316Z,10.80
2019-03-26T14:46:32.626Z,10.70
2019-03-26T14:49:03.169Z,10.80
2019-03-26T14:51:35.094Z,10.60
2019-03-26T14:54:06.014Z,10.40
2019-03-26T14:56:36.658Z,10.60
2019-03-26T14:59:07.237Z,10.50
2019-03-26T15:01:37.823Z,10.30
2019-03-26T15:04:08.352Z,10.30
2019-03-26T15:06:38.788Z,10.50
2019-03-26T15:09:10.116Z,10.30
2019-03-26T15:11:40.557Z,10.50
2019-03-26T15:14:11.116Z,10.50
2019-03-26T15:16:41.541Z,10.60
2019-03-26T15:19:11.970Z,10.40
2019-03-26T15:21:42.234Z,10.70
2019-03-26T15:24:12.695Z,11.00
2019-03-26T15:26:43.237Z,10.90
2019-03-26T15:29:13.539Z,10.60
2019-03-26T15:31:44.856Z,10.50
2019-03-26T15:34:15.042Z,10.60
2019-03-26T15:36:45.750Z,10.70
2019-03-26T15:39:16.278Z,10.70
2019-03-26T15:41:46.812Z,10.60
2019-03-26T15:44:17.121Z,10.50
2019-03-26T15:46:47.568Z,10.50
2019-03-26T15:49:18.186Z,10.70
2019-03-26T15:51:48.888Z,10.70
2019-03-26T15:54:20.153Z,10.60
2019-03-26T15:56:50.714Z,10.60
2019-03-26T15:59:21.417Z,10.70
2019-03-26T16:01:53.127Z,10.80
2019-03-26T16:04:24.053Z,10.70
2019-03-26T16:06:54.445Z,10.90
2019-03-26T16:09:25.697Z,10.90
2019-03-26T16:11:56.452Z,10.90
2019-03-26T16:14:28.257Z,10.80
2019-03-26T16:16:58.675Z,10.60
2019-03-26T16:19:32.714Z,10.60
2019-03-26T16:22:01.549Z,10.40
2019-03-26T16:24:32.432Z,10.40
2019-03-26T16:27:03.470Z,10.40
2019-03-26T16:29:34.590Z,10.10
2019-03-26T16:32:05.308Z,10.00
2019-03-26T16:34:35.762Z,9.90
2019-03-26T16:37:06.584Z,9.90
2019-03-26T16:39:38.393Z,10.00
2019-03-26T16:42:09.411Z,10.00
2019-03-26T16:44:40.132Z,10.00
2019-03-26T16:47:10.535Z,9.90
2019-03-26T16:49:41.012Z,9.90
2019-03-26T16:52:11.396Z,9.70
2019-03-26T16:54:42.169Z,9.80
2019-03-26T16:57:13.274Z,9.80
2019-03-26T16:59:43.931Z,9.70
2019-03-26T17:02:14.320Z,9.60
2019-03-26T17:04:46.791Z,9.60
2019-03-26T17:07:17.957Z,9.60
2019-03-26T17:09:48.704Z,9.60
2019-03-26T17:12:19.037Z,9.50
2019-03-26T17:14:49.377Z,9.50
2019-03-26T17:17:20.056Z,9.50
2019-03-26T17:19:50.712Z,9.40
2019-03-26T17:22:21.540Z,9.50
2019-03-26T17:24:52.920Z,9.50
2019-03-26T17:27:23.517Z,9.50
2019-03-26T17:29:54.591Z,9.50
2019-03-26T17:32:25.100Z,9.50
2019-03-26T17:34:55.563Z,9.50
2019-03-26T17:37:25.912Z,9.50
2019-03-26T17:39:56.963Z,9.50
2019-03-26T17:42:27.706Z,9.50
2019-03-26T17:44:58.495Z,9.40
2019-03-26T17:47:29.039Z,9.40
2019-03-26T17:49:59.482Z,9.50
2019-03-26T17:52:30.047Z,9.40
2019-03-26T17:55:00.592Z,9.40
2019-03-26T17:57:31.261Z,9.40
2019-03-26T18:00:02.026Z,9.50
2019-03-26T18:02:32.555Z,9.50
2019-03-26T18:05:03.079Z,9.40
2019-03-26T18:07:33.487Z,9.40
2019-03-26T18:10:03.926Z,9.30
2019-03-26T18:12:34.975Z,9.20
2019-03-26T18:15:06.430Z,9.30
2019-03-26T18:17:36.618Z,9.30
2019-03-26T18:20:07.383Z,9.30
2019-03-26T18:22:37.811Z,9.20
2019-03-26T18:25:08.374Z,9.10
2019-03-26T18:27:38.788Z,9.10
2019-03-26T18:30:09.439Z,9.10
2019-03-26T18:32:40.255Z,9.00
2019-03-26T18:35:10.777Z,8.90
2019-03-26T18:37:41.542Z,8.90
2019-03-26T18:40:12.137Z,8.90
2019-03-26T18:42:44.261Z,8.80
2019-03-26T18:45:15.205Z,8.80
2019-03-26T18:47:45.536Z,8.80
2019-03-26T18:50:16.685Z,8.80
2019-03-26T18:52:47.115Z,8.80
2019-03-26T18:55:17.667Z,8.70
2019-03-26T18:57:48.254Z,8.70
2019-03-26T19:00:29.749Z,8.60
2019-03-26T19:02:59.203Z,8.80
2019-03-26T19:05:29.523Z,8.80
2019-03-26T19:08:00.012Z,8.70
2019-03-26T19:10:31.661Z,8.70
2019-03-26T19:13:03.246Z,8.70
2019-03-26T19:15:33.634Z,8.60
2019-03-26T19:18:04.146Z,8.60
2019-03-26T19:20:34.603Z,8.60
2019-03-26T19:23:05.125Z,8.50
2019-03-26T19:25:35.523Z,8.50
2019-03-26T19:28:06.082Z,8.50
2019-03-26T19:30:36.514Z,8.50
2019-03-26T19:33:07.342Z,8.50
2019-03-26T19:35:37.566Z,8.50
2019-03-26T19:38:08.088Z,8.50
2019-03-26T19:40:38.798Z,8.60
2019-03-26T19:43:11.563Z,8.60
2019-03-26T19:45:42.772Z,8.60
2019-03-26T19:48:13.140Z,8.60
2019-03-26T19:50:43.554Z,8.50
2019-03-26T19:53:14.034Z,8.50
2019-03-26T19:55:44.653Z,8.50
2019-03-26T19:58:15.015Z,8.50
2019-03-26T20:00:45.906Z,8.50
2019-03-26T20:03:16.956Z,8.50
2019-03-26T20:05:47.972Z,8.50
2019-03-26T20:08:18.854Z,8.50
2019-03-26T20:10:49.371Z,8.50
2019-03-26T20:13:24.573Z,8.50
2019-03-26T20:15:52.220Z,8.50
2019-03-26T20:18:22.692Z,8.50
2019-03-26T20:20:53.493Z,8.40
2019-03-26T20:23:24.555Z,8.50
2019-03-26T20:25:55.330Z,8.40
2019-03-26T20:28:26.873Z,8.40
2019-03-26T20:30:57.321Z,8.30
2019-03-26T20:33:27.987Z,8.20
2019-03-26T20:35:58.394Z,8.20
2019-03-26T20:38:29.258Z,8.20
2019-03-26T20:41:00.506Z,8.20
2019-03-26T20:43:37.254Z,8.10
2019-03-26T20:46:02.971Z,8.10
2019-03-26T20:48:33.377Z,8.10
2019-03-26T20:51:03.811Z,8.10
2019-03-26T20:53:34.159Z,8.10
2019-03-26T20:56:04.532Z,8.00
2019-03-26T20:58:35.944Z,8.10
2019-03-26T21:01:06.838Z,8.20
2019-03-26T21:03:37.474Z,8.10
2019-03-26T21:06:08.036Z,8.00
2019-03-26T21:08:38.986Z,8.00
2019-03-26T21:11:09.469Z,8.10
2019-03-26T21:13:50.284Z,8.20
2019-03-26T21:16:12.265Z,8.20
2019-03-26T21:18:43.411Z,8.30
2019-03-26T21:21:14.367Z,8.20
2019-03-26T21:23:45.328Z,8.20
2019-03-26T21:26:16.105Z,8.20
2019-03-26T21:28:46.832Z,8.10
2019-03-26T21:31:17.297Z,8.20
2019-03-26T21:33:48.204Z,8.20
2019-03-26T21:36:20.702Z,8.20
2019-03-26T21:38:51.142Z,8.20
2019-03-26T21:41:21.466Z,8.30
2019-03-26T21:44:03.667Z,8.30
2019-03-26T21:46:24.226Z,8.30
2019-03-26T21:48:54.879Z,8.30
2019-03-26T21:51:25.277Z,8.30
2019-03-26T21:53:55.851Z,8.30
2019-03-26T21:56:26.232Z,8.20
2019-03-26T21:58:56.796Z,8.30
2019-03-26T22:01:27.784Z,8.30
2019-03-26T22:03:58.177Z,8.10
2019-03-26T22:06:28.526Z,8.20
2019-03-26T22:08:59.280Z,8.20
2019-03-26T22:11:29.711Z,8.20
2019-03-26T22:14:00.406Z,8.20
2019-03-26T22:16:30.778Z,8.10
2019-03-26T22:19:01.119Z,8.10
2019-03-26T22:21:31.514Z,8.10
2019-03-26T22:24:02.193Z,8.20
2019-03-26T22:26:32.525Z,8.30
2019-03-26T22:29:03.309Z,8.30
2019-03-26T22:31:33.753Z,8.10
2019-03-26T22:34:04.171Z,8.20
2019-03-26T22:36:34.984Z,8.20
2019-03-26T22:39:06.990Z,8.00
2019-03-26T22:41:37.207Z,7.90
2019-03-26T22:44:07.626Z,7.90
2019-03-26T22:46:38.454Z,7.90
2019-03-26T22:49:08.977Z,8.10
2019-03-26T22:51:39.306Z,8.10
2019-03-26T22:54:09.534Z,8.10
2019-03-26T22:56:39.860Z,8.10
2019-03-26T22:59:10.254Z,8.00
2019-03-26T23:01:40.978Z,7.90
2019-03-26T23:04:11.671Z,7.80
2019-03-26T23:06:42.076Z,7.80
2019-03-26T23:09:12.688Z,7.80
2019-03-26T23:11:43.288Z,7.70
2019-03-26T23:14:14.150Z,7.70
2019-03-26T23:16:44.735Z,7.60
2019-03-26T23:19:15.082Z,7.60
2019-03-26T23:21:45.586Z,7.60
2019-03-26T23:24:16.257Z,7.60
2019-03-26T23:26:46.513Z,7.50
2019-03-26T23:29:17.127Z,7.50
2019-03-26T23:31:48.368Z,7.50
2019-03-26T23:34:19.133Z,7.70
2019-03-26T23:36:50.161Z,7.70
2019-03-26T23:39:21.131Z,7.70
2019-03-26T23:41:51.843Z,7.50
2019-03-26T23:44:26.154Z,7.50
2019-03-26T23:46:54.502Z,7.50
2019-03-26T23:49:25.325Z,7.50
2019-03-26T23:51:55.662Z,7.40
2019-03-26T23:54:26.269Z,7.50
2019-03-26T23:56:57.079Z,7.50
2019-03-26T23:59:27.305Z,7.50
